Latest Coastal Weather Observations for Neptune Island

IDT60701

Issued at 12:22 pm EDT Friday 24 February 2017 (issued every 10 minutes, with the page automatically refreshed every 10 minutes)

About coastal observations | Map of coastal stations | Coastal observations for TAS | Marine services | Other Formats
Station Details ID: 018115 Name: NEPTUNE ISLAND Lat: -35.34 Lon: 136.12 Height: 32.0 m
Data from the previous 72 hours. | See also: Recent months at Neptune Island
Date/Time
EDT
Temp
°C
Wind Pressure Rain since
9am
mm
Weather Cloud Vis
km
Sea
Height
m
Swell
Dir  Spd
kts
Gust
kts
hPa Trend Height
m
Period
s
Dir
24/12:00pm 19.0 SSE 9 12 1027.6 - 0.0 - - - - - - -
24/11:30am 18.9 SSE 10 13 1027.6 - 0.0 - - - - - - -
24/11:00am 18.4 S 12 14 1027.5 - 0.0 - - - - - - -
24/10:30am 18.1 S 11 13 1027.4 - 0.0 - - - - - - -
24/10:00am 17.7 S 9 12 1027.3 - 0.0 - - - - - - -
24/09:30am 17.4 S 13 16 1026.9 - 0.0 - - - - - - -
24/09:00am 17.2 S 14 17 1026.7 - 0.0 - - - - - - -
24/08:30am 17.3 S 14 17 1026.5 - 0.0 - - - - - - -
24/08:00am 17.2 SSE 11 14 1025.9 - 0.0 - - - - - - -
24/07:30am 17.2 S 14 19 1025.7 - 0.0 - - - - - - -
24/07:00am 17.0 S 13 16 1025.5 - 0.0 - - - - - - -
24/06:30am 16.9 S 16 19 1025.3 - 0.0 - - - - - - -
24/06:00am 17.1 S 14 17 1025.0 - 0.0 - - - - - - -
24/05:30am 17.0 SSW 12 16 1024.7 - 0.0 - - - - - - -
24/05:00am 17.1 S 14 18 1024.5 - 0.0 - - - - - - -
24/04:30am 17.0 S 11 14 1024.5 - 0.0 - - - - - - -
24/04:00am 17.1 S 14 19 1024.5 - 0.0 - - - - - - -
24/03:30am 17.0 S 12 16 1024.4 - 0.0 - - - - - - -
24/03:00am 17.0 S 14 17 1024.5 - 0.0 - - - - - - -
24/02:30am 17.0 S 12 15 1024.7 - 0.0 - - - - - - -
24/02:00am 17.2 S 13 16 1024.9 - 0.0 - - - - - - -
24/01:30am 17.2 SSW 12 15 1025.0 - 0.0 - - - - - - -
24/01:00am 17.3 SSW 16 19 1024.9 - 0.0 - - - - - - -
24/12:30am 17.4 SSW 14 17 1024.8 - 0.0 - - - - - - -
24/12:00am 17.5 SSW 14 18 1024.8 - 0.0 - - - - - - -
 
Date/Time
EDT
Temp
°C
Wind Pressure Rain since
9am
mm
Weather Cloud Vis
km
Sea
Height
m
Swell
Dir  Spd
kts
Gust
kts
hPa Trend Height
m
Period
s
Dir
23/11:30pm 17.5 SW 13 16 1024.8 - 0.0 - - - - - - -
23/11:00pm 17.5 SSW 14 17 1024.7 - 0.0 - - - - - - -
23/10:30pm 17.5 SSW 15 21 1024.6 - 0.0 - - - - - - -
23/10:00pm 17.7 SSW 11 14 1024.4 - 0.0 - - - - - - -
23/09:30pm 17.8 SSW 13 18 1024.0 - 0.0 - - - - - - -
23/09:00pm 17.8 S 11 14 1023.7 - 0.0 - - - - - - -
23/08:30pm 18.0 SSW 11 14 1023.3 - 0.0 - - - - - - -
23/08:00pm 18.1 SSW 12 15 1023.0 - 0.0 - - - - - - -
23/07:30pm 18.3 SSW 11 13 1022.7 - 0.0 - - - - - - -
23/07:00pm 18.5 SSW 11 13 1022.4 - 0.0 - - - - - - -
23/06:30pm 19.9 SSW 10 14 1022.3 - 0.0 - - - - - - -
23/06:00pm 19.6 SSW 11 14 1022.1 - 0.0 - - - - - - -
23/05:30pm 19.9 SSW 12 15 1021.9 - 0.0 - - - - - - -
23/05:00pm 20.2 SSW 12 15 1021.8 - 0.0 - - - - - - -
23/04:30pm 20.5 SW 13 16 1021.7 - 0.0 - - - - - - -
23/04:00pm 19.5 SW 12 15 1021.8 - 0.0 - - - - - - -
23/03:30pm 20.4 SW 12 15 1022.0 - 0.0 - - - - - - -
23/03:00pm 20.8 SW 12 15 1021.9 - 0.0 - - - - - - -
23/02:30pm 20.4 SW 14 17 1021.7 - 0.0 - - - - - - -
23/02:00pm 20.2 SW 12 15 1021.8 - 0.0 - - - - - - -
23/01:30pm 20.4 SW 11 14 1021.7 - 0.0 - - - - - - -
23/01:00pm 19.3 SW 11 13 1021.7 - 0.0 - - - - - - -
23/12:30pm 19.1 SW 11 13 1021.6 - 0.0 - - - - - - -
23/12:00pm 19.2 SSW 11 14 1021.4 - 0.0 - - - - - - -
23/11:30am 19.5 SW 10 13 1021.3 - 0.0 - - - - - - -
23/11:00am 20.0 SW 11 14 1021.0 - 0.0 - - - - - - -
23/10:30am 17.9 SW 14 17 1020.7 - 0.0 - - - - - - -
23/10:00am 18.3 SW 15 18 1020.3 - 0.0 - - - - - - -
23/09:30am 17.8 WSW 15 18 1019.9 - - - - - - - - -
23/09:00am 17.8 SW 18 21 1019.3 - - - - - - - - -
23/08:30am 17.5 SW 15 19 1018.9 - - - - - - - - -
23/08:00am 17.5 SW 14 17 1018.5 - - - - - - - - -
23/07:30am 17.4 WSW 19 23 1018.0 - - - - - - - - -
23/07:00am 17.5 SW 17 21 1017.6 - - - - - - - - -
23/06:30am 17.5 SW 20 23 1017.0 - - - - - - - - -
23/06:00am 17.4 SW 18 22 1016.7 - - - - - - - - -
23/05:30am 17.3 WSW 21 25 1016.4 - - - - - - - - -
23/05:00am 17.5 SW 20 25 1016.5 - - - - - - - - -
23/04:30am 17.4 WSW 20 23 1016.3 - - - - - - - - -
23/04:00am 17.5 WSW 18 22 1016.4 - - - - - - - - -
23/03:30am 17.7 WSW 20 24 1016.5 - - - - - - - - -
23/03:00am 17.7 WSW 20 24 1016.5 - - - - - - - - -
23/02:30am 18.1 WSW 21 24 1016.5 - - - - - - - - -
23/02:00am 17.6 WSW 21 24 1016.5 - - - - - - - - -
23/01:30am 18.0 W 19 22 1016.6 - - - - - - - - -
23/01:00am 18.3 WSW 20 23 1016.5 - - - - - - - - -
 
Date/Time
EDT
Temp
°C
Wind Pressure Rain since
9am
mm
Weather Cloud Vis
km
Sea
Height
m
Swell
Dir  Spd
kts
Gust
kts
hPa Trend Height
m
Period
s
Dir
22/11:30pm 18.2 WSW 22 25 1016.0 - 0.0 - - - - - - -
22/11:00pm 18.4 W 22 26 1015.8 - 0.0 - - - - - - -
22/10:30pm 18.4 W 21 26 1015.3 - 0.0 - - - - - - -
22/10:00pm 18.5 W 22 26 1014.8 - 0.0 - - - - - - -
22/09:30pm 18.6 W 24 28 1014.2 - 0.0 - - - - - - -
22/09:00pm 18.5 W 23 29 1013.4 - 0.0 - - - - - - -
22/08:30pm 18.7 W 27 31 1012.8 - 0.0 - - - - - - -
22/08:00pm 19.0 W 27 31 1012.3 - 0.0 - - - - - - -
22/07:30pm 19.3 W 27 32 1011.7 - 0.0 - - - - - - -
22/07:00pm 19.7 WNW 26 32 1011.4 - 0.0 - - - - - - -
22/06:30pm 19.8 WNW 27 33 1011.0 - 0.0 - - - - - - -
22/06:00pm 20.3 WNW 27 33 1010.6 - 0.0 - - - - - - -
22/05:30pm 19.4 WNW 27 32 1010.4 - 0.0 - - - - - - -
22/05:00pm 21.2 WNW 27 34 1010.1 - 0.0 - - - - - - -
22/04:30pm 20.1 WNW 29 37 1009.9 - 0.0 - - - - - - -
22/04:24pm 19.9 WNW 27 37 1009.8 - 0.0 - - - - - - -
22/04:00pm 20.2 NW 29 34 1009.6 - 0.0 - - - - - - -
22/03:30pm 20.9 NW 32 37 1009.5 - 0.0 - - - - - - -
22/03:00pm 20.4 NW 28 34 1009.3 - 0.0 - - - - - - -
22/02:30pm 19.2 NW 30 37 1009.3 - 0.0 - - - - - - -
22/02:00pm 20.1 NW 35 40 1008.6 - 0.0 - - - - - - -
22/01:30pm 20.4 NW 31 40 1008.4 - 0.0 - - - - - - -
22/01:00pm 20.7 NW 31 36 1008.5 - 0.0 - - - - - - -
22/12:30pm 19.9 NW 28 33 1008.5 - 0.0 - - - - - - -
22/12:00pm 19.7 NW 27 34 1008.5 - 0.0 - - - - - - -
22/11:30am 19.1 NW 29 37 1008.3 - 0.0 - - - - - - -
22/11:00am 18.9 WNW 28 34 1008.3 - 0.0 - - - - - - -
22/10:30am 18.3 WNW 28 34 1007.9 - 0.0 - - - - - - -
22/10:16am 18.6 NW 24 39 1007.4 - 0.0 - - - - - - -
22/10:00am 19.0 WNW 23 29 1007.9 - 0.0 - - - - - - -
22/09:30am 18.9 WNW 23 28 1007.9 - 0.0 - - - - - - -
22/09:00am 19.0 W 26 31 1007.9 - 0.0 - - - - - - -
22/08:30am 19.1 W 29 33 1006.9 - 0.0 - - - - - - -
22/08:00am 19.6 W 29 34 1005.8 - 0.0 - - - - - - -
22/07:30am 20.1 W 27 34 1004.7 - 0.0 - - - - - - -
22/07:23am 20.3 W 28 38 1004.6 - 0.0 - - - - - - -
22/07:14am 21.0 NW 31 38 1004.4 - 0.0 - - - - - - -
22/07:09am 21.6 NW 28 38 1004.0 - 0.0 - - - - - - -
22/07:00am 21.7 NNW 24 32 1003.8 - 0.0 - - - - - - -
22/06:53am 21.8 N 22 27 1003.7 - 0.0 - - - - - - -
22/06:30am 21.9 N 28 32 1002.2 - 0.0 - - - - - - -
22/06:00am 21.7 NNE 28 31 1001.3 - 0.0 - - - - - - -
22/05:30am 21.7 NNE 27 31 1001.5 - 0.0 - - - - - - -
22/05:00am 21.5 NNE 27 31 1001.7 - 0.0 - - - - - - -
22/04:30am 21.4 NNE 26 32 1001.8 - 0.0 - - - - - - -
22/04:00am 21.2 NNE 23 27 1002.5 - 0.0 - - - - - - -
22/03:30am 21.8 NNE 25 29 1002.8 - 0.0 - - - - - - -
22/03:00am 21.8 NNE 26 29 1003.3 - 0.0 - - - - - - -
22/02:30am 21.3 NNE 20 24 1004.4 - 0.0 - - - - - - -
22/02:00am 20.9 N 16 18 1005.5 - 0.0 - - - - - - -
22/01:30am 20.8 NNE 17 19 1006.0 - 0.0 - - - - - - -
22/01:00am 21.2 NNE 19 22 1006.6 - 0.0 - - - - - - -
22/12:30am 21.7 NE 20 26 1006.8 - 0.0 - - - - - - -
22/12:00am 21.8 NE 15 21 1007.1 - 0.0 - - - - - - -
 
Date/Time
EDT
Temp
°C
Wind Pressure Rain since
9am
mm
Weather Cloud Vis
km
Sea
Height
m
Swell
Dir  Spd
kts
Gust
kts
hPa Trend Height
m
Period
s
Dir
21/11:30pm 21.9 NE 17 23 1007.6 - 0.0 - - - - - - -
21/11:00pm 21.8 NE 17 21 1007.9 - 0.0 - - - - - - -
21/10:30pm 21.2 NE 12 16 1008.7 - 0.0 - - - - - - -
21/10:00pm 20.9 ENE 13 14 1008.7 - 0.0 - - - - - - -
21/09:30pm 20.2 E 10 11 1009.1 - 0.0 - - - - - - -
21/09:00pm 20.0 E 9 11 1009.5 - 0.0 - - - - - - -
21/08:30pm 20.2 E 11 13 1009.4 - 0.0 - - - - - - -
21/08:00pm 20.6 E 13 15 1009.3 - 0.0 - - - - - - -
21/07:30pm 20.7 E 13 16 1009.3 - 0.0 - - - - - - -
21/07:00pm 21.1 E 16 19 1009.4 - 0.0 - - - - - - -
21/06:30pm 21.5 E 15 19 1009.9 - 0.0 - - - - - - -
21/06:00pm 21.4 ENE 15 17 1010.1 - 0.0 - - - - - - -
21/05:30pm 21.4 ENE 13 16 1010.4 - 0.0 - - - - - - -
21/05:00pm 22.0 ENE 14 17 1011.0 - 0.0 - - - - - - -
21/04:30pm 21.9 ENE 16 19 1011.3 - 0.0 - - - - - - -
21/04:00pm 21.7 ENE 17 19 1011.9 - 0.0 - - - - - - -
21/03:30pm 21.6 ENE 19 21 1012.5 - 0.0 - - - - - - -
21/03:00pm 22.9 NE 15 17 1013.2 - 0.0 - - - - - - -
21/02:30pm 21.7 NE 11 16 1013.7 - 0.0 - - - - - - -
21/02:00pm 21.9 NE 11 15 1014.2 - 0.0 - - - - - - -
21/01:30pm 21.3 NE 13 18 1014.4 - 0.0 - - - - - - -
21/01:00pm 21.7 NE 14 21 1014.7 - 0.0 - - - - - - -

Other Formats:

Comma delimited format used in spreadsheet applications
http://www.bom.gov.au/fwo/IDT60701/IDT60701.94804.axf

JavaScript Object Notation format (JSON) in row-major order
http://www.bom.gov.au/fwo/IDT60701/IDT60701.94804.json